メインページ
METAR-TAF:

METAR-TAF

空港 :

ムースニー, オンタリオ州, カナダ

緯度: 51-16N, 経度: 080-39W, 海抜: 10m

現時点の気象観測

当レポートは15分前の06:00(UTC)に作成
東/北東の風 5kt
気温 -5°C
湿度 100%
気圧 1020 hPa
視程: 2.0km
高度300ftの曇り
小雪

METAR: CYMO 040600Z AUTO 07005KT 1 1/4SM -SN OVC003 M05/M05 A3011 RMK SLP197

時間: 02:15 (06:15 UTC)

予報

当レポートは37分前の05:38(UTC)に作成
予報は04日の 06時(UTC)から 04日の 18時(UTC)まで有効
の風 5kt
視程: 0.6km
高度200ftの曇り
着氷性の霧
04日の 06時(UTC)から 04日の 15時(UTC)まで一時的に
視程: 4.8km
高度600ftの曇り
小雪, 靄
確率 30%
04日の 06時(UTC)から 04日の 15時(UTC)まで
視程: 1.2km
(弱い) 着氷性, 霧雨, 靄
04日の 1500時(UTC)から
の風 5kt
視程: 4.8km
高度600ftの曇り
04日の 1700時(UTC)から
東/北東の風 5kt
視程: 10km
高度1500ftの雲はほとんどない

TAF: CYMO 040538Z 0406/0418 08005KT 3/8SM FZFG OVC002 TEMPO 0406/0415 3SM -SN BR OVC006 PROB30 0406/0415 3/4SM -FZDZ BR FM041500 08005KT 3SM BR OVC006 FM041700 07005KT P6SM FEW015 RMK FCST BASED ON AUTO OBS. NXT FCST BY 041200Z

4,000以上の空港の気象観測と天気予報(METAR報とTAF報)

利用可能な観測所は地図上に黄色い丸と赤い丸で示す。

丸の上にカーソルを重ねると観測所名を参照できる。

次にクリックすると気象観測と天気予報を参照できる。

マップの切り替え:黒色「×」印の緑ボタンをクリックして拡大、「-」印の緑ボタンをクリックして縮小、緑色の三角印をクリックして隣りの地図に切り替え


METAR-TAF: